Main page
METAR-TAF:

METAR-TAF

Airports :

Pocono Mountains Municipal Airport

Mount Pocono, Pennsylvania, United States

latitude: 41-08-20N, longitude: 075-23-46W, elevation: 1916 ft

Current weather observation

The report was made 19 minutes ago, at 09:53 UTC
Wind 6 mph from the South/Southwest
Temperature 39°F
Humidity 87%
Pressure 30.19 in. Hg
Visibility: 10 miles
Clear sky

METAR: KMPO 220953Z AUTO 21005KT 10SM CLR 04/02 A3019 RMK AO2 SLP229 T00440022

Time: 06:12 (10:12 UTC)


TAF: missing

Weather observations and forecasts of more than 4000 airports (METAR and TAF reports).

The available stations are represented by yellow and red dots on the map.

Hover mouse over dot to see the name of the station.

Then click to see weather observations and forecasts.

To change the map : click on the green buttons with a black cross to zoom in, on the green button with a dash to zoom out, or on the green arrows for adjacent maps.


METAR-TAF: